Time;durP1;ratioP1;P1;durP2;ratioP2;P2;SDS_P1;SDS_P2;PMS_P1;PMS_P2;Temp;Humidity;BMP_temperature;BMP_pressure;BME280_temperature;BME280_humidity;BME280_pressure;Samples;Min_cycle;Max_cycle;Signal;HPM_P1;HPM_P2
2022/06/13 00:00:39;;;;;;;3.53;2.90;;;13.20;1.00;13.60;94462.00;;;;7396973;19;20180;-76
2022/06/13 00:03:20;;;;;;;11.68;3.50;;;13.20;1.00;13.60;94437.00;;;;7399221;19;20135;-77
2022/06/13 00:05:48;;;;;;;6.53;3.13;;;13.10;1.00;13.80;94450.00;;;;7396982;19;20144;-77
2022/06/13 00:08:21;;;;;;;4.72;3.22;;;13.20;1.00;13.60;94447.00;;;;7398633;19;20140;-77
2022/06/13 00:10:49;;;;;;;4.85;3.30;;;13.20;1.00;13.60;94449.00;;;;7392300;19;20158;-76
2022/06/13 00:13:16;;;;;;;5.32;3.63;;;13.30;11.80;13.60;94436.00;;;;7396801;19;20163;-76
2022/06/13 00:15:49;;;;;;;5.32;4.00;;;13.20;31.60;13.70;94441.00;;;;7397405;19;20149;-75
2022/06/13 00:18:17;;;;;;;6.38;3.90;;;13.30;58.70;13.80;94413.00;;;;7396933;19;20973;-77
2022/06/13 00:20:44;;;;;;;7.18;3.53;;;13.40;99.90;13.80;94427.00;;;;7392998;19;20204;-76
2022/06/13 00:23:17;;;;;;;8.27;3.85;;;13.40;99.90;13.80;94424.00;;;;7395847;19;20144;-75
2022/06/13 00:25:44;;;;;;;4.43;4.03;;;13.50;99.90;13.80;94436.00;;;;7397651;19;20501;-76
2022/06/13 00:28:11;;;;;;;4.95;4.07;;;13.50;99.90;13.80;94425.00;;;;7389347;19;20244;-78
2022/06/13 00:30:45;;;;;;;4.70;4.20;;;13.40;99.90;13.90;94427.00;;;;7395263;19;20163;-77
2022/06/13 00:33:13;;;;;;;5.53;3.67;;;13.50;99.90;13.80;94409.00;;;;7397616;19;20175;-77
2022/06/13 00:35:40;;;;;;;6.43;4.78;;;13.50;99.90;13.90;94427.00;;;;7397822;19;20137;-76
2022/06/13 00:38:15;;;;;;;5.05;3.78;;;13.50;99.90;13.80;94429.00;;;;7397953;19;20145;-77
2022/06/13 00:40:42;;;;;;;6.95;3.92;;;13.50;1.00;13.90;94419.00;;;;7395224;19;20144;-79
2022/06/13 00:43:15;;;;;;;6.75;4.28;;;13.50;1.00;13.80;94443.00;;;;7397249;19;20621;-77
2022/06/13 00:45:48;;;;;;;6.55;3.90;;;13.50;1.00;13.80;94433.00;;;;7395733;19;20137;-77
2022/06/13 00:48:21;;;;;;;9.00;4.07;;;13.40;1.00;13.90;94423.00;;;;7395138;19;20617;-77
2022/06/13 00:51:00;;;;;;;4.13;3.67;;;13.40;1.00;13.80;94411.00;;;;7394587;19;20171;-76
2022/06/13 00:53:35;;;;;;;3.97;3.58;;;13.40;1.00;13.80;94413.00;;;;7394824;19;20607;-77
2022/06/13 00:56:21;;;;;;;6.75;4.10;;;13.30;1.00;13.80;94408.00;;;;7395216;19;20121;-76
2022/06/13 00:58:57;;;;;;;5.70;3.55;;;13.40;1.00;13.70;94435.00;;;;7395640;19;20133;-78
2022/06/13 01:01:45;;;;;;;4.35;3.42;;;13.40;1.00;13.70;94416.00;;;;7394964;19;20538;-79
2022/06/13 01:04:19;;;;;;;10.93;3.70;;;13.30;1.00;13.60;94424.00;;;;7398322;19;20161;-80
2022/06/13 01:06:55;;;;;;;8.07;3.40;;;13.20;1.00;13.60;94419.00;;;;7397169;19;20197;-82
2022/06/13 01:11:16;;;;;;;4.53;3.30;;;13.10;1.00;13.50;94404.00;;;;7392791;19;20537;-81
2022/06/13 01:12:17;;;;;;;10.02;3.45;;;13.10;1.00;13.50;94440.00;;;;7394850;19;20625;-80
2022/06/13 01:15:05;;;;;;;5.30;3.50;;;13.00;1.00;13.50;94414.00;;;;7397494;19;20140;-79
2022/06/13 01:18:04;;;;;;;6.22;3.63;;;13.00;1.00;13.50;94427.00;;;;7393893;19;20154;-79
2022/06/13 01:21:22;;;;;;;6.40;3.70;;;13.00;1.00;13.40;94407.00;;;;7397116;19;20145;-80
2022/06/13 01:24:40;;;;;;;6.53;3.40;;;13.00;1.00;13.40;94402.00;;;;7391684;19;20141;-80
2022/06/13 01:27:26;;;;;;;5.43;3.38;;;13.00;1.00;13.40;94366.00;;;;7392021;19;20165;-80
2022/06/13 01:30:25;;;;;;;7.18;3.28;;;12.90;1.00;13.30;94393.00;;;;7390824;19;20140;-82
2022/06/13 01:33:28;;;;;;;3.00;2.70;;;12.80;1.00;13.20;94387.00;;;;7392051;19;20137;-81
2022/06/13 01:36:21;;;;;;;3.25;2.78;;;12.70;1.00;13.20;94412.00;;;;7391555;19;20148;-82
2022/06/13 01:39:19;;;;;;;3.78;2.95;;;12.70;1.00;13.20;94378.00;;;;7395447;19;20131;-80
2022/06/13 01:42:33;;;;;;;5.78;3.45;;;12.60;1.00;13.10;94408.00;;;;7394926;19;20592;-82
2022/06/13 01:45:38;;;;;;;4.65;2.70;;;12.60;1.00;13.10;94389.00;;;;7393614;19;20156;-81
2022/06/13 01:48:34;;;;;;;4.32;3.03;;;12.60;1.00;13.20;94411.00;;;;7395403;19;20149;-80
2022/06/13 01:51:08;;;;;;;5.18;3.22;;;12.50;1.00;13.10;94411.00;;;;7393824;19;20495;-81
2022/06/13 01:54:05;;;;;;;4.57;3.17;;;12.50;1.00;13.00;94400.00;;;;7395533;19;20156;-82
2022/06/13 01:57:05;;;;;;;4.68;3.45;;;12.50;1.00;13.00;94413.00;;;;7396439;19;20155;-82
2022/06/13 01:59:58;;;;;;;4.60;3.53;;;12.50;1.00;13.10;94421.00;;;;7393767;19;20181;-80
2022/06/13 02:02:43;;;;;;;10.00;3.80;;;12.50;1.00;13.10;94423.00;;;;7395323;19;20474;-80
2022/06/13 02:05:29;;;;;;;4.25;3.20;;;12.60;1.00;13.10;94414.00;;;;7392916;19;20121;-81
2022/06/13 02:08:14;;;;;;;4.85;3.38;;;12.60;1.00;13.10;94436.00;;;;7394835;19;20152;-79
2022/06/13 02:10:58;;;;;;;4.55;2.72;;;12.60;1.00;13.00;94426.00;;;;7393439;19;20660;-80
2022/06/13 02:13:57;;;;;;;6.22;3.30;;;12.60;1.00;13.00;94436.00;;;;7390773;19;20136;-77
2022/06/13 02:16:43;;;;;;;4.13;3.25;;;12.50;1.00;13.00;94416.00;;;;7394800;19;20156;-79
2022/06/13 02:19:25;;;;;;;5.90;3.10;;;12.60;1.00;13.00;94404.00;;;;7390985;19;20600;-79
2022/06/13 02:22:07;;;;;;;6.75;3.10;;;12.50;1.00;12.90;94413.00;;;;7391272;19;20669;-79
2022/06/13 02:24:43;;;;;;;5.30;3.17;;;12.40;1.00;12.90;94426.00;;;;7392111;19;20489;-79
2022/06/13 02:27:19;;;;;;;6.15;3.10;;;12.40;1.00;12.80;94408.00;;;;7394112;19;20522;-80
2022/06/13 02:29:56;;;;;;;4.75;3.60;;;12.40;1.00;12.80;94427.00;;;;7393870;19;20141;-79
2022/06/13 02:32:41;;;;;;;8.20;2.88;;;12.40;1.00;12.70;94412.00;;;;7391868;19;20128;-79
2022/06/13 02:35:27;;;;;;;3.80;2.88;;;12.30;1.00;12.70;94413.00;;;;7393550;19;20159;-80
2022/06/13 02:38:16;;;;;;;9.68;3.00;;;12.20;1.00;12.70;94406.00;;;;7390608;19;20609;-78
2022/06/13 02:40:54;;;;;;;5.38;2.90;;;12.20;1.00;12.70;94392.00;;;;7389656;19;20152;-79
2022/06/13 02:43:51;;;;;;;7.05;3.58;;;12.10;1.00;12.60;94395.00;;;;7396374;19;20186;-79
2022/06/13 02:46:26;;;;;;;7.57;3.60;;;12.10;1.00;12.50;94415.00;;;;7403565;19;20129;-79
2022/06/13 02:49:29;;;;;;;5.00;3.25;;;12.00;1.00;12.40;94415.00;;;;7399732;19;20128;-79
2022/06/13 02:52:25;;;;;;;6.22;2.85;;;11.90;1.00;12.40;94432.00;;;;7398803;19;20153;-79
2022/06/13 02:55:07;;;;;;;3.55;3.20;;;11.90;1.00;12.40;94415.00;;;;7398941;19;20132;-79
2022/06/13 02:57:56;;;;;;;4.50;3.40;;;11.90;1.00;12.40;94433.00;;;;7400666;19;20153;-79
2022/06/13 03:00:39;;;;;;;5.43;3.10;;;11.90;1.00;12.30;94432.00;;;;7397113;19;20172;-79
2022/06/13 03:03:48;;;;;;;4.30;3.08;;;11.80;1.00;12.20;94407.00;;;;7401287;19;20129;-79
2022/06/13 03:06:55;;;;;;;7.95;3.10;;;11.70;1.00;12.10;94423.00;;;;7402054;19;20613;-79
2022/06/13 03:09:54;;;;;;;5.55;3.40;;;11.60;1.00;12.10;94419.00;;;;7399646;19;20153;-79
2022/06/13 03:12:49;;;;;;;8.80;3.67;;;11.50;1.00;12.10;94403.00;;;;7400190;19;20584;-79
2022/06/13 03:15:31;;;;;;;6.95;3.33;;;11.50;1.00;12.00;94404.00;;;;7399359;19;20148;-78
2022/06/13 03:18:39;;;;;;;7.97;3.40;;;11.50;1.00;12.10;94415.00;;;;7396542;19;20141;-79
2022/06/13 03:21:13;;;;;;;7.32;3.40;;;11.40;1.00;12.00;94423.00;;;;7398995;19;20144;-79
2022/06/13 03:23:55;;;;;;;9.55;4.10;;;11.40;1.00;12.00;94404.00;;;;7401899;19;20770;-80
2022/06/13 03:26:37;;;;;;;7.53;3.47;;;11.40;1.00;11.90;94408.00;;;;7399131;19;20136;-79
2022/06/13 03:29:40;;;;;;;6.22;3.97;;;11.40;1.00;12.00;94404.00;;;;7396855;19;20617;-79
2022/06/13 03:32:24;;;;;;;6.82;3.97;;;11.40;1.00;12.00;94421.00;;;;7397844;19;20152;-79
2022/06/13 03:35:03;;;;;;;8.10;3.70;;;11.40;1.00;12.00;94418.00;;;;7397538;19;20158;-79
2022/06/13 03:37:50;;;;;;;6.25;3.80;;;11.40;1.00;12.10;94422.00;;;;7400057;19;20151;-79
2022/06/13 03:40:28;;;;;;;10.68;4.07;;;11.40;1.00;12.10;94437.00;;;;7399051;19;20182;-79
2022/06/13 03:43:10;;;;;;;6.72;3.90;;;11.40;1.00;12.00;94421.00;;;;7395218;19;20171;-79
2022/06/13 03:46:09;;;;;;;9.75;3.95;;;11.40;1.00;12.00;94409.00;;;;7397754;19;20139;-79
2022/06/13 03:48:47;;;;;;;6.90;4.28;;;11.40;1.00;11.90;94407.00;;;;7398567;19;20601;-79
2022/06/13 03:51:47;;;;;;;7.97;3.83;;;11.40;1.00;12.00;94408.00;;;;7396933;19;20148;-79
2022/06/13 03:54:23;;;;;;;6.47;3.90;;;11.50;1.00;12.00;94419.00;;;;7394542;19;20156;-79
2022/06/13 03:57:17;;;;;;;10.18;4.28;;;11.50;1.00;12.10;94429.00;;;;7396720;19;20523;-79
2022/06/13 04:00:12;;;;;;;11.23;4.45;;;11.50;1.00;12.10;94420.00;;;;7394967;19;20137;-80
2022/06/13 04:02:53;;;;;;;8.73;4.65;;;11.60;1.00;12.00;94412.00;;;;7397534;19;20153;-79
2022/06/13 04:05:34;;;;;;;8.43;4.63;;;11.60;1.00;12.10;94427.00;;;;7399271;19;20156;-79
2022/06/13 04:08:12;;;;;;;10.30;4.63;;;11.60;1.00;12.00;94418.00;;;;7398983;19;20145;-81
2022/06/13 04:11:27;;;;;;;6.30;4.72;;;11.60;1.00;12.10;94392.00;;;;7391620;19;20167;-80
2022/06/13 04:14:29;;;;;;;10.10;4.95;;;11.60;1.00;12.30;94419.00;;;;7395222;19;20129;-80
2022/06/13 04:17:49;;;;;;;8.40;4.72;;;11.70;1.00;12.40;94411.00;;;;7394579;19;20163;-79
2022/06/13 04:20:53;;;;;;;13.95;5.43;;;11.80;1.00;12.50;94405.00;;;;7395398;19;20144;-79
2022/06/13 04:23:50;;;;;;;12.07;4.50;;;11.90;1.00;12.50;94434.00;;;;7397896;19;20163;-78
2022/06/13 04:26:54;;;;;;;10.60;4.80;;;11.90;1.00;12.50;94436.00;;;;7396648;19;20184;-79
2022/06/13 04:29:41;;;;;;;17.20;5.57;;;12.00;1.00;12.60;94449.00;;;;7394112;19;20173;-79
2022/06/13 04:32:22;;;;;;;9.00;4.60;;;12.00;1.00;12.60;94433.00;;;;7392900;19;20584;-79
2022/06/13 04:34:52;;;;;;;10.40;4.70;;;12.10;1.00;12.60;94439.00;;;;7400666;19;20596;-79
2022/06/13 04:37:28;;;;;;;10.15;5.57;;;12.00;1.00;12.60;94416.00;;;;7397040;19;20185;-80
2022/06/13 04:40:03;;;;;;;7.28;4.53;;;12.00;1.00;12.60;94436.00;;;;7395886;19;20144;-79
2022/06/13 04:42:40;;;;;;;10.57;4.30;;;12.00;1.00;12.60;94437.00;;;;7397306;19;20208;-79
2022/06/13 04:45:28;;;;;;;12.10;4.97;;;12.10;99.90;12.70;94428.00;;;;7396200;19;20128;-80
2022/06/13 04:48:01;;;;;;;7.68;4.35;;;12.10;99.90;12.60;94420.00;;;;7397838;19;20623;-78
2022/06/13 04:50:51;;;;;;;9.85;4.18;;;12.10;80.50;12.60;94443.00;;;;7394611;19;20133;-79
2022/06/13 04:54:24;;;;;;;14.45;4.97;;;12.20;1.00;12.50;94443.00;;;;7394882;19;20584;-78
2022/06/13 04:56:58;;;;;;;11.90;4.00;;;12.20;1.00;12.70;94434.00;;;;7395661;19;20617;-80
2022/06/13 04:59:32;;;;;;;6.90;3.63;;;12.20;99.90;12.70;94443.00;;;;7394571;19;20639;-80
2022/06/13 05:02:18;;;;;;;7.90;3.85;;;12.20;55.10;12.80;94459.00;;;;7396698;19;20518;-80
2022/06/13 05:04:52;;;;;;;11.93;3.90;;;12.30;6.90;12.60;94462.00;;;;7394624;19;20173;-81
2022/06/13 05:07:23;;;;;;;10.75;3.90;;;12.30;1.00;11.90;94449.00;;;;7393691;19;20653;-80
2022/06/13 05:09:57;;;;;;;12.23;4.10;;;12.30;1.00;12.50;94466.00;;;;7394882;19;20142;-79
2022/06/13 05:12:40;;;;;;;9.85;4.28;;;12.40;1.00;12.60;94467.00;;;;7396656;19;20149;-81
2022/06/13 05:15:25;;;;;;;10.35;3.90;;;12.40;99.90;12.70;94463.00;;;;7396928;19;20152;-80
2022/06/13 05:18:20;;;;;;;13.57;4.35;;;12.50;99.90;12.70;94473.00;;;;7394921;19;20151;-80
2022/06/13 05:21:22;;;;;;;9.32;3.95;;;12.50;99.90;13.00;94465.00;;;;7396010;19;20141;-81
2022/06/13 05:25:01;;;;;;;8.93;3.85;;;12.70;99.90;13.00;94474.00;;;;7393764;19;20180;-80
2022/06/13 05:27:30;;;;;;;9.35;3.53;;;12.80;1.00;12.80;94455.00;;;;7393560;19;20170;-81
2022/06/13 05:30:04;;;;;;;11.57;4.03;;;12.80;1.00;13.10;94465.00;;;;7392583;19;20153;-80
2022/06/13 05:32:31;;;;;;;8.32;3.80;;;12.90;1.00;13.20;94450.00;;;;7394888;19;20629;-81
2022/06/13 05:35:01;;;;;;;11.88;4.22;;;12.90;1.00;13.20;94474.00;;;;7394122;19;20145;-81
2022/06/13 05:37:34;;;;;;;7.53;3.92;;;13.10;34.10;13.40;94466.00;;;;7394889;19;20131;-80
2022/06/13 05:40:02;;;;;;;6.32;3.47;;;13.10;1.00;13.30;94487.00;;;;7394761;19;20141;-79
2022/06/13 05:42:29;;;;;;;10.18;3.97;;;13.20;99.90;13.40;94478.00;;;;7395339;19;20145;-83
2022/06/13 05:45:03;;;;;;;10.52;3.83;;;13.20;99.90;13.60;94479.00;;;;7397554;19;20133;-80
2022/06/13 05:47:30;;;;;;;5.70;3.40;;;13.30;99.90;13.60;94485.00;;;;7395546;19;20173;-81
2022/06/13 05:49:58;;;;;;;8.40;3.95;;;13.40;1.00;13.80;94472.00;;;;7393374;19;20643;-81
2022/06/13 05:52:34;;;;;;;10.73;4.15;;;13.50;1.00;13.80;94453.00;;;;7392011;19;20580;-81
2022/06/13 05:55:02;;;;;;;10.10;4.38;;;13.50;99.90;13.90;94480.00;;;;7394676;19;20204;-81
2022/06/13 05:57:49;;;;;;;8.40;3.72;;;13.60;99.90;13.80;94502.00;;;;7394596;19;20172;-80
2022/06/13 06:01:02;;;;;;;12.45;3.65;;;13.70;99.90;14.00;94512.00;;;;7395659;19;20555;-80
2022/06/13 06:03:38;;;;;;;13.63;4.18;;;13.70;1.00;13.50;94504.00;;;;7392575;19;20641;-79
2022/06/13 06:06:22;;;;;;;9.02;3.97;;;13.80;1.00;14.00;94437.00;;;;7395913;19;20148;-80
2022/06/13 06:08:50;;;;;;;9.15;4.00;;;13.90;29.40;14.30;94503.00;;;;7394979;19;20141;-80
2022/06/13 06:11:27;;;;;;;7.95;3.92;;;14.10;99.90;14.30;94530.00;;;;7394147;19;20160;-81
2022/06/13 06:13:57;;;;;;;7.00;4.15;;;14.10;1.00;14.10;94501.00;;;;7396959;19;20125;-79
2022/06/13 06:16:27;;;;;;;10.80;4.25;;;14.20;1.00;14.10;94485.00;;;;7388923;19;21862;-81
2022/06/13 06:19:01;;;;;;;9.65;3.80;;;14.20;99.90;14.30;94505.00;;;;7391415;19;20150;-79
2022/06/13 06:21:29;;;;;;;9.77;3.63;;;14.30;1.00;14.40;94519.00;;;;7386640;19;20143;-80
2022/06/13 06:23:56;;;;;;;10.82;3.70;;;14.30;99.90;14.70;94509.00;;;;7389167;19;20177;-81
2022/06/13 06:26:32;;;;;;;10.48;3.90;;;14.30;54.60;14.60;94495.00;;;;7388988;19;20155;-81
2022/06/13 06:29:06;;;;;;;9.02;3.78;;;14.30;1.00;14.80;94513.00;;;;7386663;19;20140;-81
2022/06/13 06:31:40;;;;;;;9.15;3.90;;;14.40;99.90;14.80;94520.00;;;;7387204;19;20621;-82
2022/06/13 06:34:08;;;;;;;11.27;3.90;;;14.50;1.00;15.10;94502.00;;;;7389352;19;20589;-79
2022/06/13 06:36:36;;;;;;;8.10;3.85;;;14.60;52.50;15.20;94457.00;;;;7389737;19;20129;-81
2022/06/13 06:39:13;;;;;;;10.82;4.10;;;14.70;1.00;15.60;94530.00;;;;7387225;19;20127;-79
2022/06/13 06:41:42;;;;;;;12.63;3.80;;;14.80;1.00;15.60;94518.00;;;;7391589;19;20148;-81
2022/06/13 06:44:09;;;;;;;11.27;3.88;;;14.90;1.00;15.60;94512.00;;;;7385982;19;20172;-82
2022/06/13 06:46:43;;;;;;;11.93;3.50;;;15.10;1.00;15.90;94536.00;;;;7388238;19;20181;-81
2022/06/13 06:49:17;;;;;;;6.43;3.58;;;15.20;1.00;16.20;94514.00;;;;7390663;19;20220;-79
2022/06/13 06:51:50;;;;;;;11.88;3.75;;;15.30;1.00;16.50;94527.00;;;;7385892;19;20140;-79
2022/06/13 07:00:04;;;;;;;9.27;3.65;;;15.70;99.90;16.00;94556.00;;;;7389101;19;20129;-80
2022/06/13 07:02:46;;;;;;;8.45;3.50;;;15.70;99.90;15.80;94526.00;;;;7386129;19;20168;-80
2022/06/13 07:05:14;;;;;;;6.90;3.40;;;15.70;1.00;16.00;94484.00;;;;7387215;19;20584;-79
2022/06/13 07:07:48;;;;;;;8.18;3.03;;;15.60;1.00;16.00;94519.00;;;;7387965;19;20620;-80
2022/06/13 07:10:16;;;;;;;11.05;3.60;;;15.70;1.00;16.30;94516.00;;;;7387509;19;20149;-81
2022/06/13 07:12:46;;;;;;;9.02;3.28;;;15.80;1.00;16.30;94517.00;;;;7386976;19;20153;-79
2022/06/13 07:15:21;;;;;;;8.88;3.95;;;15.80;99.90;16.00;94533.00;;;;7389366;19;20645;-80
2022/06/13 07:17:48;;;;;;;6.57;2.92;;;15.90;99.90;16.10;94534.00;;;;7393025;19;20150;-80
2022/06/13 07:20:16;;;;;;;10.27;3.20;;;15.90;99.90;16.70;94509.00;;;;7388048;19;20198;-79
2022/06/13 07:22:55;;;;;;;7.07;3.40;;;16.10;1.00;17.10;94539.00;;;;7386096;19;20129;-81
2022/06/13 07:25:27;;;;;;;6.78;3.00;;;16.30;1.00;17.20;94545.00;;;;7388938;19;20170;-80
2022/06/13 07:28:01;;;;;;;6.93;3.15;;;16.50;99.90;17.30;94529.00;;;;7390722;19;20257;-82
2022/06/13 07:30:29;;;;;;;8.23;3.28;;;16.70;1.00;17.30;94531.00;;;;7393115;19;20133;-79
2022/06/13 07:32:59;;;;;;;7.40;2.83;;;17.00;99.90;17.50;94496.00;;;;7395890;19;20159;-82
2022/06/13 07:35:33;;;;;;;5.78;2.85;;;17.00;94.50;17.30;94559.00;;;;7396186;19;20159;-80
2022/06/13 07:38:17;;;;;;;10.00;3.40;;;16.80;99.90;17.20;94530.00;;;;7391371;19;20133;-81
2022/06/13 07:41:01;;;;;;;8.35;2.83;;;16.80;1.00;17.00;94547.00;;;;7395680;19;20569;-81
2022/06/13 07:43:36;;;;;;;6.70;3.03;;;16.70;1.00;17.40;94546.00;;;;7393773;19;20144;-81
2022/06/13 07:46:12;;;;;;;7.30;3.42;;;16.80;99.90;17.70;94504.00;;;;7395029;19;20620;-81
2022/06/13 07:48:40;;;;;;;7.88;3.50;;;17.10;99.90;17.80;94559.00;;;;7396698;19;20494;-80
2022/06/13 07:51:09;;;;;;;7.63;2.83;;;17.20;12.40;17.70;94541.00;;;;7391565;19;20128;-80
2022/06/13 07:53:43;;;;;;;8.15;3.00;;;17.20;1.00;17.60;94511.00;;;;7397281;19;20132;-81
2022/06/13 07:56:29;;;;;;;8.57;3.17;;;17.20;1.00;17.70;94545.00;;;;7393785;19;20152;-79
2022/06/13 07:59:07;;;;;;;6.75;3.17;;;17.30;99.90;17.80;94550.00;;;;7392209;19;20144;-80
2022/06/13 08:01:43;;;;;;;9.57;3.40;;;17.30;1.00;17.90;94513.00;;;;7392158;19;20224;-78
2022/06/13 08:04:24;;;;;;;7.38;3.63;;;17.40;99.90;17.80;94539.00;;;;7398195;19;20220;-82
2022/06/13 08:07:16;;;;;;;6.18;2.90;;;17.60;1.00;18.30;94552.00;;;;7396806;19;20511;-82
2022/06/13 08:09:49;;;;;;;6.13;2.63;;;17.90;37.00;18.40;94569.00;;;;7396794;19;20866;-78
2022/06/13 08:12:24;;;;;;;10.18;2.95;;;18.10;1.00;18.20;94553.00;;;;7393890;19;20163;-80
2022/06/13 08:14:59;;;;;;;8.43;3.22;;;18.00;1.00;18.00;94547.00;;;;7395740;19;20139;-82
2022/06/13 08:17:26;;;;;;;8.32;3.47;;;17.90;1.00;18.30;94510.00;;;;7394791;19;20521;-80
2022/06/13 08:19:53;;;;;;;7.65;2.97;;;18.10;57.60;18.40;94554.00;;;;7396059;19;20144;-80
2022/06/13 08:22:28;;;;;;;10.55;3.40;;;18.10;1.00;18.10;94505.00;;;;7387401;19;20226;-80
2022/06/13 08:24:58;;;;;;;11.75;3.95;;;18.20;1.00;18.30;94563.00;;;;7396412;19;20160;-78
2022/06/13 08:27:26;;;;;;;8.35;3.35;;;18.20;1.00;18.00;94544.00;;;;7394136;19;20465;-80
2022/06/13 08:30:06;;;;;;;7.55;3.20;;;18.00;1.00;18.50;94541.00;;;;7393889;19;20160;-81
2022/06/13 08:32:34;;;;;;;8.93;3.38;;;18.00;1.00;18.70;94576.00;;;;7393549;19;20145;-79
2022/06/13 08:35:09;;;;;;;7.50;2.88;;;18.30;1.00;19.30;94576.00;;;;7392669;19;20497;-81
2022/06/13 08:37:38;;;;;;;10.10;3.55;;;18.70;1.00;18.60;94560.00;;;;7394242;19;20133;-80
2022/06/13 08:40:08;;;;;;;8.60;3.45;;;18.80;1.00;18.40;94544.00;;;;7388428;19;20174;-79
2022/06/13 08:43:32;;;;;;;7.00;3.13;;;18.70;1.00;19.30;94536.00;;;;7395110;19;20626;-79
2022/06/13 08:46:38;;;;;;;7.93;3.42;;;18.90;1.00;19.10;94597.00;;;;7393009;19;20141;-78
2022/06/13 08:49:36;;;;;;;11.35;3.80;;;19.10;1.00;19.00;94587.00;;;;7391805;19;20624;-80
2022/06/13 08:52:34;;;;;;;10.02;3.05;;;18.90;1.00;19.30;94574.00;;;;7391854;19;20153;-79
2022/06/13 08:55:37;;;;;;;13.65;3.92;;;18.90;1.00;19.70;94537.00;;;;7390957;19;20148;-79
2022/06/13 08:58:19;;;;;;;8.18;3.42;;;19.20;1.00;19.50;94594.00;;;;7393041;19;20140;-77
2022/06/13 09:01:39;;;;;;;7.38;3.08;;;19.40;1.00;19.40;94582.00;;;;7389125;19;20137;-79
2022/06/13 09:04:34;;;;;;;7.28;3.28;;;19.40;1.00;19.60;94586.00;;;;7394100;19;20224;-80
2022/06/13 09:07:54;;;;;;;10.07;3.00;;;19.50;1.00;19.60;94582.00;;;;7391812;19;20184;-78
2022/06/13 09:10:51;;;;;;;9.25;2.92;;;19.70;1.00;20.00;94593.00;;;;7391942;19;20145;-78
2022/06/13 09:13:45;;;;;;;9.18;3.15;;;19.70;99.90;19.60;94590.00;;;;7393015;19;20148;-79
2022/06/13 09:16:32;;;;;;;7.13;3.03;;;19.60;99.90;19.80;94601.00;;;;7391471;19;20165;-78
2022/06/13 09:19:34;;;;;;;7.88;2.90;;;19.60;1.00;20.00;94604.00;;;;7394023;19;20964;-81
2022/06/13 09:22:22;;;;;;;4.85;2.72;;;19.70;1.00;21.00;94582.00;;;;7386758;19;20173;-79
2022/06/13 09:25:43;;;;;;;7.60;2.70;;;20.10;99.90;20.50;94597.00;;;;7389692;19;20151;-80
2022/06/13 09:28:25;;;;;;;8.07;2.40;;;20.20;99.90;20.20;94588.00;;;;7388357;19;20137;-78
2022/06/13 09:31:10;;;;;;;12.65;2.88;;;20.10;99.90;20.00;94588.00;;;;7391170;19;20776;-77
2022/06/13 09:33:47;;;;;;;5.30;2.60;;;20.10;99.90;19.90;94606.00;;;;7390730;19;20141;-78
2022/06/13 09:36:36;;;;;;;8.07;2.50;;;19.90;99.90;19.80;94599.00;;;;7391768;19;20513;-79
2022/06/13 09:39:11;;;;;;;7.00;2.65;;;20.00;99.90;19.70;94576.00;;;;7394452;19;20156;-79
2022/06/13 09:42:29;;;;;;;7.13;2.45;;;19.80;99.90;20.20;94586.00;;;;7393764;19;20684;-82
2022/06/13 09:45:47;;;;;;;6.70;2.70;;;19.70;99.90;20.50;94498.00;;;;7392038;19;20171;-81
2022/06/13 09:48:46;;;;;;;7.25;2.90;;;20.00;99.90;20.90;94594.00;;;;7394109;19;20556;-81
2022/06/13 09:51:51;;;;;;;3.88;2.10;;;20.50;99.90;20.80;94598.00;;;;7394162;19;20597;-81
2022/06/13 09:55:08;;;;;;;4.45;1.98;;;20.70;99.90;20.50;94595.00;;;;7392694;19;20140;-81
2022/06/13 09:58:13;;;;;;;5.28;2.10;;;20.80;99.90;20.40;94580.00;;;;7393104;19;20177;-81
2022/06/13 10:01:33;;;;;;;5.40;2.30;;;21.00;99.90;20.50;94553.00;;;;7391248;19;20520;-82
2022/06/13 10:04:29;;;;;;;4.40;2.13;;;20.70;99.90;20.40;94575.00;;;;7389223;19;20148;-80
2022/06/13 10:07:27;;;;;;;6.38;1.95;;;20.60;99.90;20.40;94592.00;;;;7394097;19;20137;-79
2022/06/13 10:10:25;;;;;;;6.50;2.15;;;20.40;99.90;20.00;94599.00;;;;7389462;19;20157;-81
2022/06/13 10:13:16;;;;;;;8.48;2.42;;;20.10;99.90;20.40;94586.00;;;;7386204;19;20164;-79
2022/06/13 10:15:58;;;;;;;8.48;2.65;;;20.30;99.90;20.50;94593.00;;;;7386122;19;20478;-80
2022/06/13 10:19:09;;;;;;;5.00;2.22;;;20.30;99.90;20.30;94589.00;;;;7390154;19;20172;-80
2022/06/13 10:22:03;;;;;;;4.57;2.10;;;20.40;99.90;20.90;94561.00;;;;7389068;19;20197;-80
2022/06/13 10:25:01;;;;;;;8.63;2.58;;;20.80;99.90;21.70;94619.00;;;;7389486;19;20160;-80
2022/06/13 10:27:45;;;;;;;5.15;2.20;;;21.30;99.90;21.30;94589.00;;;;7384620;19;20161;-79
2022/06/13 10:30:37;;;;;;;6.22;2.00;;;21.30;99.90;21.40;94615.00;;;;7389759;19;20148;-79
2022/06/13 10:33:54;;;;;;;6.13;2.15;;;21.40;99.90;21.50;94592.00;;;;7387407;19;20160;-80
2022/06/13 10:37:16;;;;;;;7.35;2.28;;;21.40;99.90;21.60;94594.00;;;;7385796;19;20174;-79
2022/06/13 10:39:57;;;;;;;8.57;2.47;;;21.30;99.90;21.40;94587.00;;;;7389358;19;20494;-80
2022/06/13 10:42:34;;;;;;;4.85;2.05;;;21.50;99.90;21.80;94577.00;;;;7386637;19;20156;-81
2022/06/13 10:45:12;;;;;;;6.43;2.17;;;21.60;99.90;21.90;94593.00;;;;7389158;19;20672;-79
2022/06/13 10:47:56;;;;;;;5.07;2.25;;;21.70;99.90;21.80;94585.00;;;;7385858;19;20152;-78
2022/06/13 10:50:48;;;;;;;6.22;2.78;;;21.60;99.90;21.50;94604.00;;;;7385729;19;20159;-79
2022/06/13 10:54:13;;;;;;;4.93;2.00;;;21.90;99.90;22.30;94595.00;;;;7385337;19;20160;-78
2022/06/13 10:56:56;;;;;;;4.00;2.35;;;22.30;99.90;22.40;94607.00;;;;7390500;19;20144;-82
2022/06/13 10:59:36;;;;;;;7.38;2.05;;;22.20;99.90;22.40;94584.00;;;;7387436;19;20156;-82
2022/06/13 11:02:31;;;;;;;3.75;2.30;;;22.50;99.90;22.60;94617.00;;;;7386833;19;20157;-80
2022/06/13 11:05:23;;;;;;;9.35;2.75;;;22.90;99.90;20.70;94595.00;;;;7393540;19;20129;-79
2022/06/13 11:07:58;;;;;;;3.47;1.73;;;22.40;99.90;21.40;94614.00;;;;7391956;19;20224;-80
2022/06/13 11:10:52;;;;;;;4.95;2.00;;;22.10;99.90;21.60;94618.00;;;;7396042;19;20165;-81
2022/06/13 11:13:34;;;;;;;6.43;2.35;;;21.90;99.90;22.20;94588.00;;;;7392839;19;20488;-78
2022/06/13 11:22:38;;;;;;;6.90;2.42;;;21.10;99.90;21.00;94589.00;;;;7389143;19;20247;-76
2022/06/13 11:25:32;;;;;;;5.97;2.20;;;20.90;99.90;21.30;94605.00;;;;7393713;19;20128;-79
2022/06/13 11:28:15;;;;;;;5.88;2.25;;;21.00;99.90;21.10;94604.00;;;;7393207;19;20621;-79
2022/06/13 11:30:50;;;;;;;4.47;2.00;;;21.10;99.90;21.60;94583.00;;;;7394939;19;20156;-78
2022/06/13 11:33:42;;;;;;;2.28;1.70;;;21.30;99.90;21.10;94588.00;;;;7392345;19;20149;-79
2022/06/13 11:36:15;;;;;;;6.10;2.13;;;21.20;99.90;21.80;94628.00;;;;7393193;19;20517;-79
2022/06/13 11:38:56;;;;;;;5.63;2.20;;;21.20;99.90;20.90;94616.00;;;;7394811;19;20628;-80
2022/06/13 11:41:39;;;;;;;3.38;2.03;;;20.90;99.90;19.90;94614.00;;;;7392843;19;20159;-79
2022/06/13 11:44:19;;;;;;;5.45;1.88;;;20.70;99.90;19.70;94620.00;;;;7393847;19;20148;-79
2022/06/13 11:46:53;;;;;;;4.85;2.00;;;20.40;99.90;21.00;94613.00;;;;7394746;19;20148;-78
2022/06/13 11:49:52;;;;;;;4.22;2.05;;;20.60;99.90;21.30;94623.00;;;;7396202;19;20142;-81
2022/06/13 11:55:36;;;;;;;6.00;1.92;;;21.30;99.90;21.60;94595.00;;;;7393464;19;20680;-79
2022/06/13 11:58:19;;;;;;;3.58;1.80;;;21.40;99.90;22.40;94579.00;;;;7391908;19;20155;-80
2022/06/13 12:01:43;;;;;;;4.00;2.25;;;21.80;99.90;22.90;94592.00;;;;7392640;19;20161;-81
2022/06/13 12:04:22;;;;;;;3.15;1.70;;;22.30;99.90;23.40;94569.00;;;;7389353;19;20186;-79
2022/06/13 12:07:00;;;;;;;3.95;1.85;;;22.70;99.90;23.50;94570.00;;;;7391681;19;20156;-80
2022/06/13 12:09:34;;;;;;;2.78;1.73;;;22.90;99.90;23.20;94581.00;;;;7393039;19;20661;-80
2022/06/13 12:12:08;;;;;;;5.13;2.30;;;23.00;99.90;23.20;94593.00;;;;7392296;19;20168;-79
2022/06/13 12:14:43;;;;;;;2.22;1.55;;;23.20;99.90;22.80;94610.00;;;;7390926;19;20160;-77
2022/06/13 12:17:38;;;;;;;5.57;1.80;;;23.10;99.90;22.40;94614.00;;;;7393566;19;20146;-79
2022/06/13 12:20:53;;;;;;;5.00;1.90;;;22.60;99.90;20.90;94610.00;;;;7391200;19;20508;-81
2022/06/13 12:23:54;;;;;;;6.10;2.20;;;22.00;99.90;21.40;94626.00;;;;7392643;19;20175;-79
2022/06/13 12:26:32;;;;;;;4.88;1.80;;;21.80;99.90;20.40;94634.00;;;;7391165;19;20177;-79
2022/06/13 12:29:55;;;;;;;3.10;2.00;;;21.20;99.90;20.90;94636.00;;;;7392603;19;20128;-79